Time;durP1;ratioP1;P1;durP2;ratioP2;P2;SDS_P1;SDS_P2;PMS_P1;PMS_P2;Temp;Humidity;BMP_temperature;BMP_pressure;BME280_temperature;BME280_humidity;BME280_pressure;Samples;Min_cycle;Max_cycle;Signal;HPM_P1;HPM_P2
2023/08/17 00:01:34;;;;;;;0.70;0.70;;;;;;;20.46;85.91;97040.44;5042527;28;20045;-61
2023/08/17 00:04:01;;;;;;;0.80;0.80;;;;;;;20.48;85.79;97032.34;5042863;28;20156;-60
2023/08/17 00:06:28;;;;;;;0.88;0.88;;;;;;;20.23;86.59;97012.41;5042022;28;20369;-60
2023/08/17 00:08:54;;;;;;;0.80;0.80;;;;;;;20.16;86.19;96992.84;5041798;28;20099;-60
2023/08/17 00:11:21;;;;;;;0.85;0.85;;;;;;;20.25;87.05;97024.03;5042330;28;20619;-59
2023/08/17 00:13:48;;;;;;;0.80;0.80;;;;;;;20.09;87.01;97054.88;5041405;28;20065;-60
2023/08/17 00:16:15;;;;;;;0.80;0.80;;;;;;;19.98;86.97;96993.19;5028504;28;20479;-60
2023/08/17 00:18:42;;;;;;;0.80;0.80;;;;;;;20.09;86.98;97009.88;5022872;28;20091;-60
2023/08/17 00:21:08;;;;;;;0.80;0.80;;;;;;;20.18;86.62;97029.78;5022834;28;20144;-61
2023/08/17 00:23:35;;;;;;;0.80;0.80;;;;;;;20.19;86.42;97026.53;5022919;28;20133;-60
2023/08/17 00:26:02;;;;;;;0.80;0.80;;;;;;;20.13;87.17;97028.25;5023301;28;20060;-59
2023/08/17 00:28:28;;;;;;;0.70;0.70;;;;;;;19.96;87.56;97011.75;5023055;28;20157;-60
2023/08/17 00:30:55;;;;;;;0.80;0.80;;;;;;;20.14;87.09;97017.84;5021568;28;20053;-59
2023/08/17 00:33:22;;;;;;;0.80;0.80;;;;;;;20.10;87.36;97017.88;5022760;28;20053;-60
2023/08/17 00:35:48;;;;;;;0.80;0.80;;;;;;;20.07;87.40;97018.75;5022367;28;20057;-61
2023/08/17 00:38:15;;;;;;;0.80;0.80;;;;;;;20.07;87.13;97012.31;5022282;28;20375;-59
2023/08/17 00:40:42;;;;;;;0.80;0.80;;;;;;;20.11;86.23;97015.84;5021644;28;20054;-60
2023/08/17 00:43:08;;;;;;;0.70;0.70;;;;;;;20.08;86.50;97016.69;5021121;28;20528;-61
2023/08/17 00:45:35;;;;;;;0.80;0.80;;;;;;;20.05;86.24;97004.31;5021480;28;20128;-60
2023/08/17 00:48:07;;;;;;;0.80;0.80;;;;;;;20.19;85.38;97020.13;5021560;28;20387;-60
2023/08/17 00:50:36;;;;;;;0.80;0.80;;;;;;;19.98;85.72;96986.81;5021888;28;20050;-60
2023/08/17 00:53:04;;;;;;;0.90;0.90;;;;;;;20.09;85.53;97009.88;5020819;28;20053;-60
2023/08/17 00:55:31;;;;;;;0.80;0.80;;;;;;;20.09;86.11;97015.50;5021538;28;20136;-60
2023/08/17 00:57:58;;;;;;;0.90;0.90;;;;;;;20.07;86.32;97017.94;5021486;28;20067;-59
2023/08/17 01:00:26;;;;;;;0.80;0.80;;;;;;;19.74;86.00;96957.16;5020901;28;20577;-60
2023/08/17 01:02:54;;;;;;;0.80;0.80;;;;;;;20.05;85.54;97009.13;5022918;28;20057;-62
2023/08/17 01:05:22;;;;;;;0.80;0.80;;;;;;;19.96;86.23;97012.53;5022758;28;20056;-60
2023/08/17 01:07:49;;;;;;;0.80;0.80;;;;;;;20.02;84.94;96999.56;5023286;28;20356;-60
2023/08/17 01:10:16;;;;;;;0.80;0.80;;;;;;;19.93;85.67;97006.97;5022268;28;20049;-61
2023/08/17 01:12:50;;;;;;;0.85;0.85;;;;;;;19.87;86.04;97008.72;5021170;28;20045;-60
2023/08/17 01:15:29;;;;;;;0.80;0.80;;;;;;;19.74;86.09;96994.50;5031845;28;20049;-59
2023/08/17 01:18:23;;;;;;;0.80;0.80;;;;;;;19.71;87.16;97005.81;5040879;28;20470;-60
2023/08/17 01:20:52;;;;;;;0.80;0.80;;;;;;;19.43;86.48;96948.13;5042719;28;20091;-59
2023/08/17 01:23:19;;;;;;;0.80;0.80;;;;;;;19.67;86.74;96993.84;5041946;28;20594;-60
2023/08/17 01:25:46;;;;;;;0.90;0.90;;;;;;;19.54;86.92;96985.25;5041356;28;20436;-61
2023/08/17 01:28:13;;;;;;;0.82;0.82;;;;;;;19.56;86.85;96982.81;5041690;28;20144;-60
2023/08/17 01:30:48;;;;;;;0.77;0.77;;;;;;;19.46;86.72;96959.31;5042777;28;20067;-60
2023/08/17 01:33:24;;;;;;;0.80;0.80;;;;;;;19.68;86.20;97001.84;5042368;28;20080;-60
2023/08/17 01:36:12;;;;;;;0.80;0.80;;;;;;;19.55;87.53;96992.47;5042396;28;20408;-60
2023/08/17 01:38:40;;;;;;;0.90;0.90;;;;;;;19.30;87.77;96953.59;5042397;28;20053;-60
2023/08/17 01:41:13;;;;;;;0.88;0.88;;;;;;;19.57;88.13;96992.81;5042520;28;20131;-60
2023/08/17 01:43:45;;;;;;;0.90;0.90;;;;;;;19.48;87.74;96982.16;5042391;28;20049;-61
2023/08/17 01:46:17;;;;;;;0.80;0.80;;;;;;;19.49;87.76;96996.97;5042652;28;20060;-60
2023/08/17 01:48:45;;;;;;;0.88;0.88;;;;;;;19.31;87.76;96966.44;5042087;28;20467;-60
2023/08/17 01:51:21;;;;;;;0.80;0.80;;;;;;;18.97;88.31;96934.91;5042644;28;20053;-60
2023/08/17 01:53:48;;;;;;;0.80;0.80;;;;;;;19.21;89.27;96989.03;5042386;28;20916;-60
2023/08/17 01:56:15;;;;;;;0.80;0.80;;;;;;;18.88;88.91;96943.09;5040734;28;20052;-59
2023/08/17 01:58:42;;;;;;;0.80;0.80;;;;;;;19.17;89.41;96983.47;5041996;28;20303;-59
2023/08/17 02:01:09;;;;;;;0.73;0.73;;;;;;;18.92;90.11;96955.03;5041725;28;20963;-60
2023/08/17 02:03:35;;;;;;;0.88;0.88;;;;;;;18.98;90.01;96970.19;5042621;28;20049;-59
2023/08/17 02:06:02;;;;;;;0.90;0.90;;;;;;;18.72;89.75;96916.91;5046329;28;20045;-59
2023/08/17 02:08:29;;;;;;;0.80;0.80;;;;;;;19.17;89.89;96977.09;5045513;28;20146;-60
2023/08/17 02:10:56;;;;;;;0.80;0.80;;;;;;;19.03;90.14;96955.66;5045439;28;20059;-60
2023/08/17 02:13:23;;;;;;;0.70;0.70;;;;;;;19.06;90.24;96982.88;5045615;28;20056;-61
2023/08/17 02:15:49;;;;;;;0.80;0.80;;;;;;;19.11;89.88;96971.16;5044224;28;20152;-60
2023/08/17 02:18:16;;;;;;;0.70;0.70;;;;;;;19.09;89.66;96968.00;5045694;28;20128;-60
2023/08/17 02:20:43;;;;;;;0.73;0.73;;;;;;;19.05;89.44;96970.06;5043506;28;20049;-60
2023/08/17 02:23:10;;;;;;;0.80;0.80;;;;;;;19.01;89.44;96972.16;5044982;28;20045;-60
2023/08/17 02:25:40;;;;;;;0.80;0.80;;;;;;;18.63;90.07;96914.66;5045600;28;20144;-59
2023/08/17 02:28:07;;;;;;;0.70;0.70;;;;;;;18.93;91.23;96962.25;5045459;28;20071;-60
2023/08/17 02:30:34;;;;;;;0.70;0.70;;;;;;;18.66;92.00;96933.44;5045551;28;20118;-59
2023/08/17 02:33:00;;;;;;;0.70;0.70;;;;;;;19.07;92.04;96973.25;5045072;28;20049;-59
2023/08/17 02:35:27;;;;;;;0.80;0.80;;;;;;;19.02;92.07;96996.19;5045291;28;20118;-59
2023/08/17 02:37:54;;;;;;;0.80;0.80;;;;;;;18.92;92.28;96971.13;5044836;28;20443;-60
2023/08/17 02:40:21;;;;;;;0.80;0.80;;;;;;;19.02;92.75;96990.56;5044942;28;20156;-60
2023/08/17 02:42:48;;;;;;;0.70;0.70;;;;;;;19.11;92.31;96985.19;5044172;28;20049;-60
2023/08/17 02:45:15;;;;;;;0.75;0.75;;;;;;;19.16;90.54;96976.28;5043690;28;20066;-59
2023/08/17 02:47:41;;;;;;;0.88;0.88;;;;;;;19.23;89.39;96987.41;5044912;28;20080;-60
2023/08/17 02:50:08;;;;;;;0.70;0.70;;;;;;;19.24;88.92;96983.38;5044739;28;20507;-61
2023/08/17 02:52:35;;;;;;;0.80;0.80;;;;;;;18.83;89.11;96940.78;5044656;28;20052;-61
2023/08/17 02:55:02;;;;;;;0.73;0.73;;;;;;;19.09;89.33;96982.03;5044173;28;20045;-60
2023/08/17 02:57:29;;;;;;;0.70;0.70;;;;;;;19.15;88.94;96987.94;5044067;28;20458;-60
2023/08/17 02:59:55;;;;;;;0.73;0.73;;;;;;;19.12;88.52;96984.00;5044381;28;20041;-59
2023/08/17 03:02:22;;;;;;;0.73;0.73;;;;;;;19.03;89.32;96989.34;5043692;28;20435;-62
2023/08/17 03:04:49;;;;;;;0.70;0.70;;;;;;;18.75;89.00;96944.91;5043000;28;20431;-59
2023/08/17 03:07:15;;;;;;;0.70;0.70;;;;;;;19.01;88.56;96986.19;5042963;28;20053;-61
2023/08/17 03:09:42;;;;;;;0.80;0.80;;;;;;;19.08;88.21;96986.06;5043253;28;20745;-60
2023/08/17 03:12:08;;;;;;;0.70;0.70;;;;;;;18.95;88.87;96976.66;5042771;28;20056;-59
2023/08/17 03:14:35;;;;;;;0.80;0.80;;;;;;;18.88;88.39;96962.75;5043197;28;20037;-61
2023/08/17 03:17:02;;;;;;;0.70;0.70;;;;;;;18.95;88.46;96987.88;5042410;28;20049;-59
2023/08/17 03:19:28;;;;;;;0.80;0.80;;;;;;;18.86;89.02;96979.22;5043227;28;20073;-60
2023/08/17 03:21:55;;;;;;;0.80;0.80;;;;;;;18.85;89.46;96983.25;5058048;28;20044;-60
2023/08/17 03:24:22;;;;;;;0.73;0.73;;;;;;;18.80;89.52;96985.72;5043132;28;20095;-59
2023/08/17 03:26:49;;;;;;;0.70;0.70;;;;;;;18.59;89.98;96953.19;5042572;28;20539;-59
2023/08/17 03:29:15;;;;;;;0.80;0.80;;;;;;;18.77;90.25;96984.56;5042673;28;20432;-61
2023/08/17 03:31:42;;;;;;;0.80;0.80;;;;;;;18.44;89.67;96935.00;5042991;28;20440;-59
2023/08/17 03:34:09;;;;;;;0.80;0.80;;;;;;;18.83;89.56;96985.69;5043106;28;20061;-60
2023/08/17 03:36:35;;;;;;;0.77;0.77;;;;;;;18.73;89.10;96975.41;5043040;28;20059;-59
2023/08/17 03:39:02;;;;;;;0.73;0.73;;;;;;;18.46;89.54;96932.56;5041320;28;20045;-59
2023/08/17 03:41:30;;;;;;;0.70;0.70;;;;;;;18.86;89.77;96990.44;5041425;28;20064;-59
2023/08/17 03:43:56;;;;;;;0.80;0.80;;;;;;;18.86;89.63;96984.81;5042873;28;20061;-59
2023/08/17 03:46:23;;;;;;;0.73;0.73;;;;;;;18.65;89.26;96945.09;5041175;28;20049;-60
2023/08/17 03:48:50;;;;;;;0.60;0.60;;;;;;;18.98;88.85;96981.44;5042709;28;20111;-60
2023/08/17 03:51:16;;;;;;;0.70;0.70;;;;;;;18.99;88.84;96991.44;5041459;28;20049;-60
2023/08/17 03:53:43;;;;;;;0.70;0.70;;;;;;;19.07;88.39;96992.09;5042363;28;20060;-64
2023/08/17 03:56:09;;;;;;;0.70;0.70;;;;;;;18.94;88.62;97000.34;5042393;28;20395;-61
2023/08/17 03:58:36;;;;;;;0.90;0.90;;;;;;;19.00;88.38;96984.59;5042560;28;20045;-60
2023/08/17 04:01:05;;;;;;;0.77;0.77;;;;;;;18.95;88.60;96981.50;5042883;28;20048;-60
2023/08/17 04:03:32;;;;;;;0.75;0.75;;;;;;;19.07;88.32;97012.56;5042078;28;20541;-60
2023/08/17 04:06:04;;;;;;;0.90;0.90;;;;;;;19.18;87.63;97001.94;5042184;28;20590;-60
2023/08/17 04:08:31;;;;;;;0.70;0.70;;;;;;;19.12;88.22;96998.03;5042307;28;20079;-59
2023/08/17 04:10:57;;;;;;;0.70;0.70;;;;;;;17.21;87.08;96669.81;5042283;28;20436;-60
2023/08/17 04:13:24;;;;;;;0.75;0.75;;;;;;;19.31;87.01;97000.13;5041757;28;20064;-59
2023/08/17 04:15:52;;;;;;;0.80;0.80;;;;;;;19.38;86.51;96994.38;5041996;28;20060;-61
2023/08/17 04:18:19;;;;;;;0.80;0.80;;;;;;;19.44;86.50;97003.13;5042138;28;20053;-60
2023/08/17 04:20:46;;;;;;;0.80;0.80;;;;;;;19.47;85.96;96994.59;5030052;28;20060;-60
2023/08/17 04:23:12;;;;;;;0.80;0.80;;;;;;;19.58;85.60;97003.63;5022333;28;20512;-61
2023/08/17 04:25:40;;;;;;;0.90;0.90;;;;;;;19.65;85.39;97007.53;5021741;28;20049;-62
2023/08/17 04:28:06;;;;;;;0.80;0.80;;;;;;;19.20;85.53;96926.47;5021349;28;20064;-62
2023/08/17 04:30:33;;;;;;;0.85;0.85;;;;;;;18.25;84.22;96747.78;5022196;28;20472;-60
2023/08/17 04:33:00;;;;;;;0.80;0.80;;;;;;;19.85;84.06;97034.44;5022193;28;20437;-59
2023/08/17 04:35:26;;;;;;;0.80;0.80;;;;;;;19.74;83.76;96943.13;5020588;28;20053;-60
2023/08/17 04:37:53;;;;;;;0.80;0.80;;;;;;;20.20;83.02;96999.22;5020423;28;20340;-59
2023/08/17 04:40:20;;;;;;;0.90;0.90;;;;;;;20.15;82.60;96975.22;5021724;28;20049;-59
2023/08/17 04:42:46;;;;;;;0.80;0.80;;;;;;;20.53;81.70;97017.78;5022222;28;20053;-59
2023/08/17 04:45:13;;;;;;;0.80;0.80;;;;;;;20.49;81.77;97005.78;5022117;28;20053;-59
2023/08/17 04:47:40;;;;;;;0.93;0.93;;;;;;;20.68;81.04;96999.31;5021887;28;20073;-59
2023/08/17 04:50:07;;;;;;;0.80;0.80;;;;;;;20.84;80.37;97000.16;5022473;28;20056;-60
2023/08/17 04:52:34;;;;;;;0.88;0.88;;;;;;;21.07;78.94;96996.38;5022895;28;20523;-59
2023/08/17 04:55:00;;;;;;;0.90;0.90;;;;;;;21.10;78.92;96995.53;5037895;28;20056;-59
2023/08/17 04:57:28;;;;;;;0.85;0.85;;;;;;;21.37;77.75;96998.06;5022212;28;20059;-59
2023/08/17 04:59:54;;;;;;;0.80;0.80;;;;;;;21.51;77.41;96994.88;5022202;28;20186;-60
2023/08/17 05:02:21;;;;;;;0.90;0.90;;;;;;;21.72;76.13;96986.59;5021157;28;20049;-60
2023/08/17 05:04:48;;;;;;;0.90;0.90;;;;;;;21.71;75.32;96999.13;5021623;28;20160;-60
2023/08/17 05:07:14;;;;;;;0.90;0.90;;;;;;;21.83;74.88;96992.78;5021413;28;20049;-60
2023/08/17 05:09:41;;;;;;;0.90;0.90;;;;;;;22.07;73.17;96991.28;5036654;28;20065;-61
2023/08/17 05:12:08;;;;;;;0.90;0.90;;;;;;;22.01;73.48;96964.06;5022178;28;20159;-61
2023/08/17 05:14:34;;;;;;;0.95;0.95;;;;;;;22.29;73.22;96997.88;5022521;28;20045;-60
2023/08/17 05:17:01;;;;;;;0.95;0.95;;;;;;;22.53;72.03;96989.13;5041451;28;20059;-60
2023/08/17 05:19:28;;;;;;;0.95;0.95;;;;;;;22.19;71.16;96919.19;5041150;28;20063;-62
2023/08/17 05:21:54;;;;;;;0.90;0.90;;;;;;;22.78;70.10;96989.19;5039930;28;20234;-59
2023/08/17 05:24:21;;;;;;;0.90;0.90;;;;;;;22.87;70.21;96992.91;5040428;28;20049;-60
2023/08/17 05:26:48;;;;;;;1.10;1.10;;;;;;;23.08;69.12;96986.53;5041231;28;20542;-62
2023/08/17 05:29:14;;;;;;;1.00;1.00;;;;;;;23.23;68.99;96992.50;5040572;28;20048;-59
2023/08/17 05:31:41;;;;;;;1.00;1.00;;;;;;;23.39;68.65;96984.72;5040869;28;20072;-59
2023/08/17 05:34:08;;;;;;;1.00;1.00;;;;;;;23.48;67.96;96989.66;5040721;28;20060;-59
2023/08/17 05:36:34;;;;;;;1.02;1.02;;;;;;;23.74;67.62;96986.28;5041052;28;20460;-59
2023/08/17 05:39:01;;;;;;;1.00;1.00;;;;;;;23.67;67.52;96951.81;5040547;28;20080;-60
2023/08/17 05:41:28;;;;;;;1.00;1.00;;;;;;;23.98;67.87;96986.66;5040786;28;20687;-60
2023/08/17 05:43:55;;;;;;;1.00;1.00;;;;;;;23.98;67.95;96975.34;5039787;28;20399;-60
2023/08/17 05:46:21;;;;;;;1.30;1.30;;;;;;;24.35;67.89;96994.19;5040865;28;20522;-60
2023/08/17 05:48:48;;;;;;;1.05;1.05;;;;;;;24.56;66.84;96987.69;5039806;28;20056;-60
2023/08/17 05:51:16;;;;;;;1.20;1.20;;;;;;;24.76;65.67;96982.47;5040251;28;20060;-61
2023/08/17 05:53:42;;;;;;;1.20;1.20;;;;;;;24.92;65.46;96987.91;5041998;28;20486;-59
2023/08/17 05:56:09;;;;;;;1.08;1.08;;;;;;;25.07;64.68;96983.22;5041297;28;20053;-60
2023/08/17 05:58:36;;;;;;;1.20;1.20;;;;;;;25.20;64.16;96975.38;5041746;28;20215;-60
2023/08/17 06:01:07;;;;;;;1.40;1.40;;;;;;;25.42;63.93;96980.22;5041520;28;20048;-60
2023/08/17 06:03:37;;;;;;;1.38;1.38;;;;;;;25.63;62.59;96973.59;5041139;28;20515;-60
2023/08/17 06:06:05;;;;;;;1.30;1.30;;;;;;;25.84;61.58;96984.03;5040888;28;20045;-59
2023/08/17 06:08:32;;;;;;;1.30;1.30;;;;;;;26.01;61.53;96977.59;5055495;28;20049;-64
2023/08/17 06:10:59;;;;;;;1.40;1.40;;;;;;;25.46;61.36;96901.41;5060171;28;20049;-59
2023/08/17 06:13:26;;;;;;;1.20;1.20;;;;;;;25.90;61.46;96925.34;5059618;28;20052;-63
2023/08/17 06:15:52;;;;;;;1.38;1.38;;;;;;;25.93;61.44;96979.13;5051524;28;20049;-66
2023/08/17 06:18:21;;;;;;;1.40;1.40;;;;;;;26.09;60.54;96966.69;5057531;28;20071;-63
2023/08/17 06:20:51;;;;;;;1.50;1.50;;;;;;;26.56;59.85;96983.97;5048456;28;20053;-69
2023/08/17 06:23:19;;;;;;;1.45;1.45;;;;;;;26.28;59.39;96969.06;5055043;28;20628;-59
2023/08/17 06:25:46;;;;;;;1.48;1.48;;;;;;;26.10;59.21;96939.88;5060636;28;20086;-63
2023/08/17 06:28:13;;;;;;;1.60;1.60;;;;;;;26.66;58.11;96979.88;5060266;28;20060;-63
2023/08/17 06:30:39;;;;;;;1.50;1.50;;;;;;;26.04;58.51;96890.66;5059307;28;20052;-63
2023/08/17 06:33:06;;;;;;;1.50;1.50;;;;;;;26.91;56.83;96985.16;5060765;28;20050;-61
2023/08/17 06:35:33;;;;;;;1.35;1.35;;;;;;;26.57;56.24;96957.16;5059066;28;20056;-62
2023/08/17 06:38:00;;;;;;;1.20;1.20;;;;;;;26.38;55.42;96922.28;5060898;28;20408;-60
2023/08/17 06:40:27;;;;;;;1.67;1.67;;;;;;;25.49;56.37;96741.59;5060554;28;20059;-60
2023/08/17 06:42:54;;;;;;;1.70;1.70;;;;;;;26.59;55.24;96907.06;5060840;28;20045;-61
2023/08/17 06:45:22;;;;;;;1.55;1.55;;;;;;;26.29;55.85;96782.34;5061082;28;20075;-71
2023/08/17 06:47:49;;;;;;;1.80;1.80;;;;;;;27.09;53.21;96862.78;5059953;28;20056;-69
2023/08/17 06:50:16;;;;;;;1.80;1.80;;;;;;;28.12;51.11;96970.81;5076472;28;20473;-68
2023/08/17 06:52:43;;;;;;;1.73;1.73;;;;;;;28.09;49.59;96951.88;5063407;28;20048;-69
2023/08/17 06:55:10;;;;;;;1.65;1.65;;;;;;;27.44;48.20;96871.56;5053371;28;20509;-64
2023/08/17 06:57:37;;;;;;;1.70;1.70;;;;;;;28.42;48.27;96971.66;5051178;28;20069;-64
2023/08/17 07:00:07;;;;;;;1.77;1.77;;;;;;;28.04;47.03;96878.47;5044348;28;20056;-73
2023/08/17 07:02:34;;;;;;;1.60;1.60;;;;;;;28.82;47.02;96968.22;5044119;28;20056;-63
2023/08/17 07:05:20;;;;;;;1.63;1.63;;;;;;;29.01;46.71;96955.31;5044487;28;20565;-64
2023/08/17 07:07:48;;;;;;;1.85;1.85;;;;;;;28.45;45.70;96898.63;5044443;28;20049;-66
2023/08/17 07:10:14;;;;;;;1.70;1.70;;;;;;;28.20;46.18;96882.91;5043868;28;20136;-64
2023/08/17 07:12:41;;;;;;;1.80;1.80;;;;;;;28.48;45.92;96920.47;5015714;28;20146;-74
2023/08/17 07:15:08;;;;;;;1.73;1.73;;;;;;;28.83;45.76;96952.69;5039867;28;20045;-79
2023/08/17 07:17:36;;;;;;;1.77;1.77;;;;;;;29.00;44.63;96962.31;5034430;28;20051;-68
2023/08/17 07:20:04;;;;;;;1.80;1.80;;;;;;;28.58;45.59;96951.22;5044305;28;20067;-71
2023/08/17 07:22:34;;;;;;;1.70;1.70;;;;;;;28.62;43.99;96956.75;5033385;28;20065;-65
2023/08/17 07:25:01;;;;;;;1.70;1.70;;;;;;;28.95;45.49;96960.16;5023909;28;20053;-58
2023/08/17 07:27:28;;;;;;;1.48;1.48;;;;;;;28.87;44.04;96947.56;5023415;28;20056;-63
2023/08/17 07:29:55;;;;;;;1.73;1.73;;;;;;;29.39;43.55;96960.84;5038447;28;20054;-72
2023/08/17 07:32:22;;;;;;;1.73;1.73;;;;;;;29.64;42.14;96954.47;5023084;28;20096;-67
2023/08/17 07:34:49;;;;;;;2.05;2.05;;;;;;;29.82;42.14;96959.91;5024186;28;20507;-60
2023/08/17 07:37:15;;;;;;;1.83;1.83;;;;;;;29.98;40.39;96965.06;5022641;28;20042;-67
2023/08/17 07:39:42;;;;;;;1.80;1.80;;;;;;;29.58;40.83;96893.63;5023590;28;20120;-58
2023/08/17 07:42:09;;;;;;;1.85;1.85;;;;;;;30.18;39.59;96945.00;5023239;28;20385;-61
2023/08/17 07:44:36;;;;;;;1.70;1.70;;;;;;;30.25;39.88;96930.31;5022477;28;20065;-60
2023/08/17 07:47:03;;;;;;;1.85;1.85;;;;;;;30.58;40.24;96961.31;5022570;28;20902;-59
2023/08/17 07:49:29;;;;;;;1.90;1.90;;;;;;;30.63;39.42;96961.38;5023231;28;20049;-68
2023/08/17 07:51:59;;;;;;;1.88;1.88;;;;;;;30.76;38.93;96964.63;5023127;28;20128;-71
2023/08/17 07:54:26;;;;;;;1.83;1.83;;;;;;;30.57;38.74;96922.56;5022076;28;20078;-71
2023/08/17 07:56:53;;;;;;;1.75;1.75;;;;;;;30.54;37.21;96909.28;5022780;28;20134;-59
2023/08/17 07:59:19;;;;;;;1.75;1.75;;;;;;;30.98;38.48;96957.53;5023078;28;20516;-69
2023/08/17 08:01:46;;;;;;;1.80;1.80;;;;;;;30.71;39.08;96902.41;5025913;28;20551;-68
2023/08/17 08:04:13;;;;;;;1.65;1.65;;;;;;;31.14;38.17;96939.72;5019973;28;20343;-60
2023/08/17 08:06:39;;;;;;;1.60;1.60;;;;;;;31.15;38.58;96944.13;5004635;28;20083;-59
2023/08/17 08:09:06;;;;;;;1.80;1.80;;;;;;;31.42;38.08;96955.81;5022101;28;20055;-58
2023/08/17 08:11:34;;;;;;;1.85;1.85;;;;;;;31.44;38.30;96955.28;5022043;28;20052;-58
2023/08/17 08:14:00;;;;;;;1.83;1.83;;;;;;;31.49;37.47;96941.00;5020967;28;20049;-67
2023/08/17 08:16:30;;;;;;;1.55;1.55;;;;;;;31.28;38.14;96944.50;5022781;28;20515;-57
2023/08/17 08:18:57;;;;;;;1.83;1.83;;;;;;;30.82;37.98;96944.66;5042624;28;20048;-58
2023/08/17 08:21:24;;;;;;;1.80;1.80;;;;;;;31.23;37.44;96940.28;5042481;28;20236;-67
2023/08/17 08:23:50;;;;;;;1.63;1.63;;;;;;;30.86;37.65;96882.25;5040891;28;20055;-59
2023/08/17 08:26:17;;;;;;;1.90;1.90;;;;;;;31.38;37.49;96923.00;5041775;28;20065;-73
2023/08/17 08:28:44;;;;;;;1.85;1.85;;;;;;;31.38;36.79;96900.84;5042089;28;20049;-59
2023/08/17 08:31:11;;;;;;;1.63;1.63;;;;;;;31.47;37.84;96942.81;5041727;28;20059;-58
2023/08/17 08:33:37;;;;;;;1.73;1.73;;;;;;;31.77;37.06;96938.28;5040700;28;20483;-61
2023/08/17 08:36:05;;;;;;;1.75;1.75;;;;;;;31.94;36.55;96931.34;5041264;28;20063;-57
2023/08/17 08:38:32;;;;;;;1.90;1.90;;;;;;;31.26;36.27;96846.88;5040604;28;20123;-72
2023/08/17 08:41:01;;;;;;;1.70;1.70;;;;;;;31.37;36.71;96904.22;5040904;28;20057;-61
2023/08/17 08:43:27;;;;;;;1.90;1.90;;;;;;;31.77;37.05;96910.44;5041094;28;20068;-63
2023/08/17 08:45:55;;;;;;;2.10;2.10;;;;;;;31.73;37.07;96909.06;5041429;28;20053;-67
2023/08/17 08:48:26;;;;;;;2.08;2.08;;;;;;;31.27;37.14;96891.41;5034281;28;20149;-62
2023/08/17 08:50:55;;;;;;;1.70;1.70;;;;;;;31.59;37.24;96932.97;5021307;28;20049;-61
2023/08/17 08:53:35;;;;;;;1.77;1.77;;;;;;;30.88;37.72;96903.38;5019359;28;20057;-68
2023/08/17 08:56:03;;;;;;;1.80;1.80;;;;;;;31.34;37.17;96922.44;5021459;28;20057;-59
2023/08/17 08:58:33;;;;;;;1.88;1.88;;;;;;;31.60;37.02;96903.06;5035813;28;20062;-61
2023/08/17 09:01:01;;;;;;;1.67;1.67;;;;;;;31.90;37.79;96910.75;5020578;28;20050;-71
2023/08/17 09:03:32;;;;;;;1.80;1.80;;;;;;;31.51;37.71;96891.78;5020479;28;20041;-60
2023/08/17 09:05:59;;;;;;;1.60;1.60;;;;;;;31.87;37.70;96913.84;5021107;28;20053;-59
2023/08/17 09:08:29;;;;;;;1.75;1.75;;;;;;;31.86;38.15;96889.38;5020853;28;20057;-62
2023/08/17 09:10:55;;;;;;;1.70;1.70;;;;;;;32.04;38.35;96917.59;5020483;28;20140;-64
2023/08/17 09:13:22;;;;;;;1.90;1.90;;;;;;;31.83;37.99;96881.78;5019490;28;20081;-61
2023/08/17 09:15:49;;;;;;;1.60;1.60;;;;;;;31.68;39.02;96918.47;5020400;28;20053;-64
2023/08/17 09:18:17;;;;;;;1.80;1.80;;;;;;;31.41;39.35;96910.50;5035717;28;20056;-66
2023/08/17 09:20:46;;;;;;;1.70;1.70;;;;;;;31.64;38.69;96886.38;5040418;28;20107;-66
2023/08/17 09:23:19;;;;;;;1.88;1.88;;;;;;;30.83;39.45;96769.63;5040078;28;20052;-66
2023/08/17 09:25:48;;;;;;;1.70;1.70;;;;;;;31.80;39.36;96908.59;5038641;28;20514;-61
2023/08/17 09:28:16;;;;;;;1.67;1.67;;;;;;;31.92;39.05;96895.91;5021116;28;20050;-60
2023/08/17 09:31:07;;;;;;;1.80;1.80;;;;;;;32.25;38.57;96882.44;5000798;28;20077;-66
2023/08/17 09:33:35;;;;;;;1.80;1.80;;;;;;;31.43;40.11;96851.41;5017955;28;20057;-68
2023/08/17 09:36:02;;;;;;;1.63;1.63;;;;;;;31.87;40.62;96847.94;5035738;28;20550;-60
2023/08/17 09:38:29;;;;;;;1.90;1.90;;;;;;;32.15;39.73;96891.81;5020799;28;20054;-65
2023/08/17 09:40:57;;;;;;;1.92;1.92;;;;;;;32.13;39.49;96897.28;5020348;28;20088;-65
2023/08/17 09:43:27;;;;;;;2.00;2.00;;;;;;;31.27;40.29;96842.72;5018182;28;20049;-64
2023/08/17 09:45:55;;;;;;;1.80;1.80;;;;;;;31.59;40.75;96847.84;5018930;28;20046;-61
2023/08/17 09:48:21;;;;;;;2.00;2.00;;;;;;;32.26;39.92;96906.16;5019987;28;20140;-65
2023/08/17 09:50:48;;;;;;;1.98;1.98;;;;;;;32.37;39.02;96911.94;5034787;28;20061;-61
2023/08/17 09:53:17;;;;;;;1.92;1.92;;;;;;;32.50;39.39;96909.34;5017391;28;20647;-65
2023/08/17 09:55:45;;;;;;;1.92;1.92;;;;;;;32.65;39.19;96915.63;5018783;28;20053;-64
2023/08/17 09:58:16;;;;;;;2.10;2.10;;;;;;;32.40;39.28;96916.66;5018525;28;20145;-61
2023/08/17 10:00:49;;;;;;;1.98;1.98;;;;;;;32.74;38.84;96906.75;5020311;28;20049;-63
2023/08/17 10:03:19;;;;;;;1.50;1.50;;;;;;;32.85;38.20;96903.88;5034189;28;20051;-61
2023/08/17 10:05:52;;;;;;;2.10;2.10;;;;;;;32.71;38.40;96838.94;5040185;28;20052;-61
2023/08/17 10:08:23;;;;;;;1.98;1.98;;;;;;;32.44;38.62;96859.78;5039010;28;20053;-61
2023/08/17 10:10:51;;;;;;;1.88;1.88;;;;;;;32.43;38.16;96812.34;5040108;28;20148;-60
2023/08/17 10:13:34;;;;;;;2.00;2.00;;;;;;;32.42;38.99;96911.19;5039945;28;20057;-62
2023/08/17 10:16:15;;;;;;;1.90;1.90;;;;;;;32.34;39.40;96901.50;5030193;28;20056;-63
2023/08/17 10:19:01;;;;;;;2.00;2.00;;;;;;;32.42;39.91;96908.31;5019712;28;20057;-60
2023/08/17 10:21:31;;;;;;;1.80;1.80;;;;;;;31.99;39.65;96881.09;5017486;28;20064;-64
2023/08/17 10:23:58;;;;;;;1.77;1.77;;;;;;;32.46;38.97;96880.16;5019642;28;20053;-64
2023/08/17 10:26:25;;;;;;;1.80;1.80;;;;;;;32.70;38.82;96889.03;5023107;28;20508;-60
2023/08/17 10:28:54;;;;;;;1.85;1.85;;;;;;;32.84;38.76;96887.97;5023532;28;20142;-60
2023/08/17 10:31:21;;;;;;;1.95;1.95;;;;;;;32.38;38.83;96844.69;5038297;28;20430;-70
2023/08/17 10:33:48;;;;;;;1.80;1.80;;;;;;;33.26;38.47;96873.31;5023260;28;20060;-62
2023/08/17 10:36:15;;;;;;;1.70;1.70;;;;;;;32.87;38.21;96851.69;5023135;28;20064;-58
2023/08/17 10:38:42;;;;;;;1.70;1.70;;;;;;;33.02;38.21;96878.84;5021428;28;20064;-60
2023/08/17 10:41:11;;;;;;;1.85;1.85;;;;;;;32.81;38.26;96837.38;5023092;28;20075;-62
2023/08/17 10:43:54;;;;;;;1.98;1.98;;;;;;;33.35;38.53;96864.44;5021559;28;20060;-65
2023/08/17 10:46:20;;;;;;;1.73;1.73;;;;;;;32.29;39.65;96847.78;5023278;28;20049;-68
2023/08/17 10:48:47;;;;;;;1.75;1.75;;;;;;;32.66;38.59;96831.09;5022491;28;20483;-66
2023/08/17 10:51:14;;;;;;;1.80;1.80;;;;;;;33.08;38.72;96858.75;5022822;28;20049;-61
2023/08/17 10:53:43;;;;;;;1.60;1.60;;;;;;;32.57;38.95;96867.88;5022560;28;20095;-60
2023/08/17 10:56:13;;;;;;;1.80;1.80;;;;;;;32.30;39.65;96861.59;5024182;28;20064;-60
2023/08/17 10:58:42;;;;;;;1.80;1.80;;;;;;;32.46;39.61;96865.81;5022281;28;20535;-60
2023/08/17 11:01:09;;;;;;;1.80;1.80;;;;;;;32.77;39.03;96839.69;5005211;28;20143;-60
2023/08/17 11:03:36;;;;;;;1.60;1.60;;;;;;;32.98;38.33;96841.03;5042263;28;20055;-66
2023/08/17 11:08:50;;;;;;;1.70;1.70;;;;;;;33.27;38.48;96857.66;5064894;27;1288602;-60
2023/08/17 11:11:20;;;;;;;1.60;1.60;;;;;;;33.52;38.54;96868.06;5115646;28;20509;-60
2023/08/17 11:13:47;;;;;;;2.13;2.13;;;;;;;33.26;38.20;96815.13;5110925;27;20048;-59
2023/08/17 11:16:16;;;;;;;1.83;1.83;;;;;;;32.99;37.83;96762.19;5119375;27;20142;-59
2023/08/17 11:18:46;;;;;;;1.70;1.70;;;;;;;33.82;37.54;96855.91;5098593;27;20044;-58
2023/08/17 11:21:14;;;;;;;1.88;1.88;;;;;;;33.69;37.48;96785.41;5098398;28;20547;-64
2023/08/17 11:23:45;;;;;;;1.73;1.73;;;;;;;33.30;37.92;96776.19;5098571;28;20059;-65
2023/08/17 11:26:15;;;;;;;1.65;1.65;;;;;;;33.27;37.77;96828.16;5098544;28;20051;-63
2023/08/17 11:28:41;;;;;;;1.98;1.98;;;;;;;33.85;37.59;96849.09;5098653;28;20169;-60
2023/08/17 11:31:11;;;;;;;1.83;1.83;;;;;;;34.12;37.48;96845.31;5098779;28;20134;-61
2023/08/17 11:33:39;;;;;;;2.15;2.15;;;;;;;33.92;37.24;96819.81;5098345;28;20048;-63
2023/08/17 11:36:09;;;;;;;1.95;1.95;;;;;;;33.89;37.99;96850.38;5098574;28;20147;-61
2023/08/17 11:38:38;;;;;;;1.88;1.88;;;;;;;33.66;38.68;96851.78;5114068;27;20043;-68
2023/08/17 11:41:08;;;;;;;1.95;1.95;;;;;;;33.47;37.87;96822.88;5098569;28;20480;-65